createdAt,value
2023-03-10T00:01:21.285Z,6.40
2023-03-10T00:03:49.383Z,6.40
2023-03-10T00:06:21.315Z,6.40
2023-03-10T00:08:49.096Z,6.40
2023-03-10T00:11:16.589Z,6.40
2023-03-10T00:13:44.230Z,6.40
2023-03-10T00:16:27.106Z,6.40
2023-03-10T00:18:54.739Z,6.40
2023-03-10T00:21:26.280Z,6.40
2023-03-10T00:23:54.047Z,6.40
2023-03-10T00:26:23.117Z,6.40
2023-03-10T00:28:50.902Z,6.40
2023-03-10T00:31:23.081Z,6.40
2023-03-10T00:33:52.068Z,6.40
2023-03-10T00:36:25.847Z,6.40
2023-03-10T00:38:54.531Z,6.30
2023-03-10T00:41:25.069Z,6.40
2023-03-10T00:43:52.799Z,6.40
2023-03-10T00:46:20.163Z,6.40
2023-03-10T00:48:47.598Z,6.40
2023-03-10T00:51:15.275Z,6.40
2023-03-10T00:53:42.896Z,6.40
2023-03-10T00:56:25.688Z,6.40
2023-03-10T00:58:56.121Z,6.40
2023-03-10T01:01:27.482Z,6.40
2023-03-10T01:03:57.909Z,6.40
2023-03-10T01:06:26.091Z,6.40
2023-03-10T01:08:53.665Z,6.40
2023-03-10T01:11:25.436Z,6.40
2023-03-10T01:13:53.221Z,6.40
2023-03-10T01:16:20.296Z,6.40
2023-03-10T01:18:48.089Z,6.40
2023-03-10T01:21:25.017Z,6.40
2023-03-10T01:23:52.445Z,6.40
2023-03-10T01:26:19.723Z,6.40
2023-03-10T01:28:48.981Z,6.40
2023-03-10T01:31:18.181Z,6.40
2023-03-10T01:33:46.585Z,6.40
2023-03-10T01:36:21.906Z,6.40
2023-03-10T01:38:49.550Z,6.40
2023-03-10T01:41:18.010Z,6.40
2023-03-10T01:43:48.597Z,6.40
2023-03-10T01:46:42.981Z,6.40
2023-03-10T01:49:44.890Z,6.40
2023-03-10T01:52:20.896Z,6.40
2023-03-10T01:54:57.321Z,6.40
2023-03-10T01:57:27.907Z,6.40
2023-03-10T01:59:56.875Z,6.40
2023-03-10T02:02:25.865Z,6.40
2023-03-10T02:04:54.645Z,6.40
2023-03-10T02:07:26.962Z,6.40
2023-03-10T02:09:56.209Z,6.40
2023-03-10T02:12:23.464Z,6.40
2023-03-10T02:14:52.937Z,6.40
2023-03-10T02:17:23.407Z,6.40
2023-03-10T02:20:12.110Z,6.40
2023-03-10T02:22:40.098Z,6.40
2023-03-10T02:25:22.527Z,6.40
2023-03-10T02:27:49.978Z,6.40
2023-03-10T02:30:25.019Z,6.40
2023-03-10T02:32:57.888Z,6.40
2023-03-10T02:35:25.271Z,6.40
2023-03-10T02:37:56.669Z,6.40
2023-03-10T02:40:38.000Z,6.40
2023-03-10T02:43:20.507Z,6.40
2023-03-10T02:45:52.201Z,6.50
2023-03-10T02:48:31.282Z,6.50
2023-03-10T02:51:02.372Z,6.30
2023-03-10T02:53:30.493Z,6.40
2023-03-10T02:55:58.523Z,6.50
2023-03-10T02:58:29.970Z,6.50
2023-03-10T03:00:57.815Z,6.40
2023-03-10T03:03:25.285Z,6.50
2023-03-10T03:05:53.018Z,6.50
2023-03-10T03:08:20.989Z,6.50
2023-03-10T03:10:48.188Z,6.50
2023-03-10T03:13:15.681Z,6.50
2023-03-10T03:15:42.963Z,6.50
2023-03-10T03:18:11.186Z,6.50
2023-03-10T03:20:41.023Z,6.40
2023-03-10T03:23:08.755Z,6.40
2023-03-10T03:25:39.103Z,6.40
2023-03-10T03:28:09.796Z,6.40
2023-03-10T03:30:38.086Z,6.40
2023-03-10T03:33:07.206Z,6.40
2023-03-10T03:35:37.365Z,6.30
2023-03-10T03:38:06.422Z,6.30
2023-03-10T03:40:36.385Z,6.30
2023-03-10T03:43:05.620Z,6.30
2023-03-10T03:45:34.268Z,6.40
2023-03-10T03:48:02.083Z,6.30
2023-03-10T03:50:31.895Z,6.40
2023-03-10T03:53:05.841Z,6.40
2023-03-10T03:55:33.969Z,6.40
2023-03-10T03:58:01.282Z,6.40
2023-03-10T04:00:28.387Z,6.40
2023-03-10T04:03:02.263Z,6.40
2023-03-10T04:05:30.839Z,6.40
2023-03-10T04:07:58.233Z,6.40
2023-03-10T04:10:28.549Z,6.40
2023-03-10T04:12:56.207Z,6.40
2023-03-10T04:15:24.776Z,6.40
2023-03-10T04:17:51.902Z,6.40
2023-03-10T04:20:19.086Z,6.40
2023-03-10T04:22:49.723Z,6.40
2023-03-10T04:25:18.595Z,6.40
2023-03-10T04:27:46.285Z,6.40
2023-03-10T04:30:15.039Z,6.40
2023-03-10T04:32:47.928Z,6.40
2023-03-10T04:35:16.841Z,6.40
2023-03-10T04:37:44.862Z,6.40
2023-03-10T04:40:15.029Z,6.40
2023-03-10T04:42:42.928Z,6.40
2023-03-10T04:45:11.596Z,6.40
2023-03-10T04:47:40.626Z,6.40
2023-03-10T04:50:08.457Z,6.50
2023-03-10T04:52:35.425Z,6.40
2023-03-10T04:55:02.603Z,6.50
2023-03-10T04:57:30.077Z,6.50
2023-03-10T04:59:57.245Z,6.50
2023-03-10T05:02:24.454Z,6.50
2023-03-10T05:04:52.081Z,6.50
2023-03-10T05:07:21.310Z,6.50
2023-03-10T05:09:49.923Z,6.50
2023-03-10T05:12:17.281Z,6.50
2023-03-10T05:14:44.431Z,6.50
2023-03-10T05:17:12.502Z,6.50
2023-03-10T05:19:39.830Z,6.60
2023-03-10T05:22:08.235Z,6.60
2023-03-10T05:24:37.092Z,6.60
2023-03-10T05:27:04.474Z,6.60
2023-03-10T05:29:32.372Z,6.60
2023-03-10T05:32:07.699Z,6.60
2023-03-10T05:34:38.592Z,6.70
2023-03-10T05:37:06.087Z,6.70
2023-03-10T05:39:33.699Z,6.70
2023-03-10T05:42:04.505Z,6.70
2023-03-10T05:44:34.152Z,6.70
2023-03-10T05:47:02.856Z,6.70
2023-03-10T05:49:30.803Z,6.70
2023-03-10T05:51:59.117Z,6.70
2023-03-10T05:54:26.445Z,6.70
2023-03-10T05:56:53.481Z,6.70
2023-03-10T05:59:23.175Z,6.80
2023-03-10T06:01:52.037Z,6.80
2023-03-10T06:04:19.164Z,6.90
2023-03-10T06:06:48.803Z,6.80
2023-03-10T06:09:15.853Z,7.10
2023-03-10T06:11:42.891Z,6.80
2023-03-10T06:14:10.145Z,6.90
2023-03-10T06:16:37.325Z,6.80
2023-03-10T06:19:04.427Z,6.90
2023-03-10T06:21:31.531Z,6.90
2023-03-10T06:23:59.279Z,6.90
2023-03-10T06:26:26.540Z,6.90
2023-03-10T06:28:53.344Z,6.90
2023-03-10T06:31:24.418Z,7.00
2023-03-10T06:33:52.603Z,7.00
2023-03-10T06:36:20.794Z,7.00
2023-03-10T06:38:48.466Z,7.10
2023-03-10T06:41:16.612Z,7.10
2023-03-10T06:43:43.549Z,7.10
2023-03-10T06:46:11.933Z,7.10
2023-03-10T06:48:40.907Z,7.10
2023-03-10T06:51:11.585Z,7.20
2023-03-10T06:53:38.786Z,7.20
2023-03-10T06:56:28.423Z,7.20
2023-03-10T06:58:55.947Z,7.20
2023-03-10T07:01:26.365Z,7.20
2023-03-10T07:03:54.929Z,7.20
2023-03-10T07:06:23.480Z,7.30
2023-03-10T07:08:51.265Z,7.30
2023-03-10T07:11:19.016Z,7.30
2023-03-10T07:13:46.139Z,7.40
2023-03-10T07:16:14.199Z,7.40
2023-03-10T07:18:41.835Z,7.40
2023-03-10T07:21:17.905Z,7.50
2023-03-10T07:23:46.444Z,7.50
2023-03-10T07:26:16.081Z,7.50
2023-03-10T07:28:43.082Z,7.50
2023-03-10T07:31:14.142Z,7.50
2023-03-10T07:33:41.139Z,7.50
2023-03-10T07:36:15.413Z,7.60
2023-03-10T07:38:42.341Z,7.70
2023-03-10T07:41:13.566Z,7.70
2023-03-10T07:43:40.599Z,7.70
2023-03-10T07:46:11.267Z,7.80
2023-03-10T07:48:39.614Z,7.80
2023-03-10T07:51:07.573Z,7.90
2023-03-10T07:53:34.844Z,7.90
2023-03-10T07:56:11.395Z,8.00
2023-03-10T07:58:39.686Z,8.10
2023-03-10T08:01:18.083Z,8.10
2023-03-10T08:03:47.789Z,8.10
2023-03-10T08:06:35.882Z,8.20
2023-03-10T08:09:04.074Z,8.30
2023-03-10T08:11:31.750Z,8.40
2023-03-10T08:13:59.288Z,8.50
2023-03-10T08:16:26.825Z,8.60
2023-03-10T08:18:54.879Z,8.70
2023-03-10T08:21:22.357Z,8.80
2023-03-10T08:23:51.036Z,8.90
2023-03-10T08:26:19.908Z,9.00
2023-03-10T08:28:48.248Z,9.10
2023-03-10T08:31:20.988Z,9.20
2023-03-10T08:33:49.560Z,9.40
2023-03-10T08:36:20.596Z,9.50
2023-03-10T08:38:50.077Z,9.60
2023-03-10T08:41:25.932Z,9.60
2023-03-10T08:43:55.390Z,9.70
2023-03-10T08:46:25.060Z,9.80
2023-03-10T08:48:52.221Z,9.90
2023-03-10T08:51:20.138Z,10.00
2023-03-10T08:53:49.890Z,10.00
2023-03-10T08:56:21.311Z,10.10
2023-03-10T08:58:49.732Z,10.20
2023-03-10T09:01:18.185Z,10.30
2023-03-10T09:03:46.297Z,10.40
2023-03-10T09:06:14.735Z,10.50
2023-03-10T09:08:42.657Z,10.60
2023-03-10T09:11:16.355Z,10.70
2023-03-10T09:13:44.008Z,10.80
2023-03-10T09:16:13.473Z,11.10
2023-03-10T09:18:41.392Z,11.40
2023-03-10T09:21:11.287Z,11.70
2023-03-10T09:23:41.367Z,12.10
2023-03-10T09:26:08.917Z,12.50
2023-03-10T09:28:36.641Z,12.80
2023-03-10T09:31:06.069Z,13.10
2023-03-10T09:33:34.093Z,13.30
2023-03-10T09:36:06.920Z,13.50
2023-03-10T09:38:36.096Z,13.60
2023-03-10T09:41:22.738Z,13.70
2023-03-10T09:44:02.956Z,13.80
2023-03-10T09:47:05.691Z,13.90
2023-03-10T09:49:40.251Z,14.00
2023-03-10T09:52:42.013Z,14.20
2023-03-10T09:55:28.697Z,14.30
2023-03-10T09:57:57.456Z,14.50
2023-03-10T10:00:33.544Z,14.70
2023-03-10T10:03:23.553Z,14.90
2023-03-10T10:05:53.453Z,15.00
2023-03-10T10:08:29.296Z,15.10
2023-03-10T10:10:59.594Z,15.10
2023-03-10T10:13:30.466Z,15.20
2023-03-10T10:16:33.608Z,15.30
2023-03-10T10:19:21.494Z,15.40
2023-03-10T10:21:53.673Z,15.40
2023-03-10T10:24:21.076Z,15.40
2023-03-10T10:26:48.238Z,15.40
2023-03-10T10:29:29.689Z,15.40
2023-03-10T10:32:06.955Z,15.30
2023-03-10T10:34:34.683Z,15.20
2023-03-10T10:37:01.900Z,15.20
2023-03-10T10:39:43.115Z,15.20
2023-03-10T10:42:24.200Z,15.10
2023-03-10T10:45:04.620Z,15.00
2023-03-10T10:47:47.348Z,14.90
2023-03-10T10:50:18.691Z,14.90
2023-03-10T10:52:51.623Z,14.80
2023-03-10T10:55:29.686Z,15.10
2023-03-10T10:58:01.812Z,14.70
2023-03-10T11:00:30.793Z,14.70
2023-03-10T11:02:58.094Z,14.70
2023-03-10T11:05:35.821Z,14.70
2023-03-10T11:08:18.908Z,14.80
2023-03-10T11:11:02.124Z,14.80
2023-03-10T11:14:03.160Z,14.80
2023-03-10T11:16:53.222Z,15.00
2023-03-10T11:19:32.062Z,15.10
2023-03-10T11:22:33.962Z,15.10
2023-03-10T11:25:21.838Z,15.20
2023-03-10T11:28:01.969Z,15.20
2023-03-10T11:30:38.198Z,15.20
2023-03-10T11:33:16.995Z,15.30
2023-03-10T11:35:54.616Z,15.20
2023-03-10T11:38:37.673Z,15.00
2023-03-10T11:41:24.613Z,15.10
2023-03-10T11:44:31.824Z,15.10
2023-03-10T11:47:06.812Z,15.00
2023-03-10T11:49:41.660Z,15.00
2023-03-10T11:52:19.364Z,15.00
2023-03-10T11:55:07.327Z,15.00
2023-03-10T11:57:45.782Z,15.00
2023-03-10T12:00:26.029Z,15.00
2023-03-10T12:03:36.174Z,14.90
2023-03-10T12:06:04.964Z,14.90
2023-03-10T12:08:35.078Z,14.80
2023-03-10T12:11:06.619Z,14.80
2023-03-10T12:13:48.196Z,14.70
2023-03-10T12:16:20.926Z,14.70
2023-03-10T12:18:48.187Z,14.60
2023-03-10T12:21:20.908Z,14.50
2023-03-10T12:23:53.817Z,14.50
2023-03-10T12:26:39.230Z,14.50
2023-03-10T12:29:24.544Z,14.40
2023-03-10T12:31:53.934Z,14.50
2023-03-10T12:34:31.517Z,14.40
2023-03-10T12:37:11.308Z,14.50
2023-03-10T12:39:45.949Z,14.60
2023-03-10T12:42:33.069Z,14.70
2023-03-10T12:45:18.421Z,14.80
2023-03-10T12:48:19.702Z,15.00
2023-03-10T12:50:56.108Z,15.30
2023-03-10T12:53:38.722Z,15.50
2023-03-10T12:56:16.608Z,15.70
2023-03-10T12:59:05.272Z,15.80
2023-03-10T13:01:43.246Z,15.90
2023-03-10T13:04:20.322Z,16.00
2023-03-10T13:06:49.036Z,16.20
2023-03-10T13:09:26.435Z,16.50
2023-03-10T13:12:07.740Z,16.80
2023-03-10T13:14:39.396Z,17.40
2023-03-10T13:17:30.536Z,18.00
2023-03-10T13:20:11.713Z,18.50
2023-03-10T13:22:39.197Z,19.00
2023-03-10T13:25:12.474Z,19.20
2023-03-10T13:27:39.590Z,19.40
2023-03-10T13:30:26.682Z,19.40
2023-03-10T13:32:59.613Z,19.50
2023-03-10T13:35:36.684Z,19.50
2023-03-10T13:38:16.617Z,19.50
2023-03-10T13:40:48.660Z,19.50
2023-03-10T13:43:41.774Z,19.40
2023-03-10T13:46:19.110Z,19.40
2023-03-10T13:48:49.928Z,19.30
2023-03-10T13:51:32.251Z,19.00
2023-03-10T13:54:32.624Z,19.30
2023-03-10T13:57:25.421Z,19.30
2023-03-10T13:59:55.005Z,19.60
2023-03-10T14:02:35.953Z,19.40
2023-03-10T14:05:06.768Z,19.40
2023-03-10T14:07:37.467Z,19.40
2023-03-10T14:10:04.410Z,19.30
2023-03-10T14:12:37.554Z,19.30
2023-03-10T14:15:19.374Z,19.20
2023-03-10T14:17:50.264Z,19.20
2023-03-10T14:20:45.209Z,19.10
2023-03-10T14:23:26.242Z,18.90
2023-03-10T14:25:56.340Z,18.70
2023-03-10T14:28:30.659Z,18.30
2023-03-10T14:31:02.569Z,18.40
2023-03-10T14:33:29.609Z,18.10
2023-03-10T14:35:57.295Z,18.10
2023-03-10T14:38:24.364Z,17.80
2023-03-10T14:40:53.702Z,17.60
2023-03-10T14:43:26.755Z,17.50
2023-03-10T14:45:57.646Z,17.40
2023-03-10T14:48:27.907Z,17.30
2023-03-10T14:50:56.908Z,17.20
2023-03-10T14:53:27.041Z,17.10
2023-03-10T14:55:56.468Z,17.00
2023-03-10T14:58:28.992Z,16.80
2023-03-10T15:00:56.105Z,16.80
2023-03-10T15:03:22.991Z,16.60
2023-03-10T15:05:49.915Z,16.50
2023-03-10T15:08:17.882Z,16.40
2023-03-10T15:10:49.699Z,16.20
2023-03-10T15:13:22.948Z,16.10
2023-03-10T15:15:50.653Z,15.90
2023-03-10T15:18:21.763Z,15.70
2023-03-10T15:20:49.454Z,15.50
2023-03-10T15:23:20.077Z,15.40
2023-03-10T15:25:47.979Z,15.20
2023-03-10T15:28:15.263Z,15.10
2023-03-10T15:30:42.402Z,14.90
2023-03-10T15:33:10.761Z,14.80
2023-03-10T15:35:39.064Z,14.80
2023-03-10T15:38:06.148Z,14.40
2023-03-10T15:40:34.848Z,14.30
2023-03-10T15:43:01.928Z,14.20
2023-03-10T15:45:30.851Z,14.00
2023-03-10T15:47:58.497Z,13.90
2023-03-10T15:50:26.195Z,13.70
2023-03-10T15:52:56.342Z,13.60
2023-03-10T15:55:25.009Z,13.50
2023-03-10T15:57:52.936Z,13.40
2023-03-10T16:00:23.116Z,13.10
2023-03-10T16:02:51.223Z,13.00
2023-03-10T16:05:19.496Z,12.90
2023-03-10T16:07:46.643Z,12.80
2023-03-10T16:10:17.717Z,12.70
2023-03-10T16:12:44.798Z,12.60
2023-03-10T16:15:13.703Z,12.40
2023-03-10T16:17:41.906Z,12.30
2023-03-10T16:20:12.649Z,12.20
2023-03-10T16:22:42.741Z,12.00
2023-03-10T16:25:18.193Z,11.90
2023-03-10T16:27:46.053Z,11.80
2023-03-10T16:30:18.483Z,11.60
2023-03-10T16:32:47.819Z,11.50
2023-03-10T16:35:16.188Z,11.40
2023-03-10T16:37:43.641Z,11.30
2023-03-10T16:40:11.641Z,11.20
2023-03-10T16:42:38.897Z,11.00
2023-03-10T16:45:07.359Z,10.90
2023-03-10T16:47:34.348Z,10.80
2023-03-10T16:50:01.437Z,10.70
2023-03-10T16:52:28.362Z,10.70
2023-03-10T16:55:01.722Z,10.50
2023-03-10T16:57:28.672Z,10.50
2023-03-10T16:59:55.659Z,10.40
2023-03-10T17:02:22.547Z,10.30
2023-03-10T17:04:49.645Z,10.20
2023-03-10T17:07:16.873Z,10.10
2023-03-10T17:09:45.620Z,10.10
2023-03-10T17:12:12.683Z,10.00
2023-03-10T17:14:39.844Z,10.10
2023-03-10T17:17:08.101Z,9.90
2023-03-10T17:19:35.454Z,9.80
2023-03-10T17:22:02.663Z,9.70
2023-03-10T17:24:29.614Z,9.60
2023-03-10T17:26:56.581Z,9.50
2023-03-10T17:29:23.525Z,9.40
2023-03-10T17:31:51.745Z,9.40
2023-03-10T17:34:19.686Z,9.30
2023-03-10T17:36:50.675Z,9.30
2023-03-10T17:39:21.456Z,9.10
2023-03-10T17:41:49.155Z,9.10
2023-03-10T17:44:16.855Z,9.00
2023-03-10T17:46:45.367Z,9.00
2023-03-10T17:49:14.526Z,9.00
2023-03-10T17:51:44.164Z,8.90
2023-03-10T17:54:20.166Z,8.90
2023-03-10T17:56:47.702Z,8.90
2023-03-10T17:59:16.128Z,8.80
2023-03-10T18:01:44.639Z,8.90
2023-03-10T18:04:12.206Z,8.80
2023-03-10T18:06:39.378Z,8.80
2023-03-10T18:09:12.355Z,8.70
2023-03-10T18:11:39.710Z,8.70
2023-03-10T18:14:07.150Z,8.70
2023-03-10T18:16:39.026Z,8.60
2023-03-10T18:19:10.478Z,8.60
2023-03-10T18:21:38.164Z,8.60
2023-03-10T18:24:06.471Z,8.50
2023-03-10T18:26:33.787Z,8.50
2023-03-10T18:29:01.121Z,8.50
2023-03-10T18:31:31.925Z,8.50
2023-03-10T18:33:59.764Z,8.40
2023-03-10T18:36:27.477Z,8.40
2023-03-10T18:38:54.989Z,8.40
2023-03-10T18:41:29.545Z,8.30
2023-03-10T18:43:57.210Z,8.30
2023-03-10T18:46:24.338Z,8.30
2023-03-10T18:48:55.899Z,8.20
2023-03-10T18:51:25.493Z,8.20
2023-03-10T18:53:52.601Z,8.20
2023-03-10T18:56:19.730Z,8.20
2023-03-10T18:58:46.786Z,8.10
2023-03-10T19:01:14.953Z,8.10
2023-03-10T19:03:42.416Z,8.10
2023-03-10T19:06:09.658Z,8.10
2023-03-10T19:08:38.938Z,8.10
2023-03-10T19:11:07.036Z,8.10
2023-03-10T19:13:34.541Z,8.10
2023-03-10T19:16:08.457Z,8.00
2023-03-10T19:18:35.905Z,8.10
2023-03-10T19:21:03.621Z,8.00
2023-03-10T19:23:30.856Z,8.00
2023-03-10T19:25:58.131Z,8.00
2023-03-10T19:28:25.174Z,8.00
2023-03-10T19:30:52.186Z,8.00
2023-03-10T19:33:19.331Z,8.00
2023-03-10T19:35:46.289Z,8.00
2023-03-10T19:38:13.372Z,7.90
2023-03-10T19:40:40.347Z,7.90
2023-03-10T19:43:07.349Z,7.90
2023-03-10T19:45:34.338Z,7.90
2023-03-10T19:48:01.355Z,7.90
2023-03-10T19:50:28.524Z,7.90
2023-03-10T19:52:55.535Z,7.90
2023-03-10T19:55:25.125Z,7.90
2023-03-10T19:57:55.782Z,7.90
2023-03-10T20:00:31.208Z,7.90
2023-03-10T20:02:58.595Z,7.90
2023-03-10T20:05:26.754Z,7.90
2023-03-10T20:07:54.196Z,7.90
2023-03-10T20:10:21.242Z,7.90
2023-03-10T20:12:48.361Z,7.90
2023-03-10T20:15:17.072Z,7.90
2023-03-10T20:17:44.193Z,7.90
2023-03-10T20:20:13.382Z,7.90
2023-03-10T20:22:43.589Z,7.80
2023-03-10T20:25:14.252Z,7.90
2023-03-10T20:27:41.582Z,7.90
2023-03-10T20:30:14.356Z,7.80
2023-03-10T20:32:41.632Z,7.80
2023-03-10T20:35:09.100Z,7.80
2023-03-10T20:37:38.454Z,7.80
2023-03-10T20:40:07.593Z,7.80
2023-03-10T20:42:34.611Z,7.80
2023-03-10T20:45:02.698Z,7.80
2023-03-10T20:47:30.048Z,7.80
2023-03-10T20:49:57.392Z,7.80
2023-03-10T20:52:24.723Z,7.80
2023-03-10T20:54:55.031Z,7.80
2023-03-10T20:57:22.385Z,7.80
2023-03-10T20:59:49.484Z,7.80
2023-03-10T21:02:17.742Z,7.80
2023-03-10T21:04:47.107Z,7.80
2023-03-10T21:07:14.375Z,7.80
2023-03-10T21:09:42.102Z,7.80
2023-03-10T21:12:09.044Z,7.80
2023-03-10T21:14:35.916Z,7.80
2023-03-10T21:17:03.287Z,7.80
2023-03-10T21:19:55.517Z,7.70
2023-03-10T21:22:22.693Z,7.70
2023-03-10T21:24:49.741Z,7.70
2023-03-10T21:27:17.253Z,7.70
2023-03-10T21:29:44.274Z,7.70
2023-03-10T21:32:11.224Z,7.70
2023-03-10T21:34:38.968Z,7.70
2023-03-10T21:37:08.641Z,7.60
2023-03-10T21:39:35.551Z,7.70
2023-03-10T21:42:02.491Z,7.60
2023-03-10T21:44:30.318Z,7.70
2023-03-10T21:46:57.421Z,7.60
2023-03-10T21:49:24.501Z,7.60
2023-03-10T21:51:51.575Z,7.60
2023-03-10T21:54:18.775Z,7.60
2023-03-10T21:56:45.938Z,7.60
2023-03-10T21:59:13.117Z,7.60
2023-03-10T22:01:40.317Z,7.60
2023-03-10T22:04:07.327Z,7.60
2023-03-10T22:06:34.584Z,7.60
2023-03-10T22:09:01.520Z,7.60
2023-03-10T22:14:10.836Z,7.60
2023-03-10T22:16:38.018Z,7.60
2023-03-10T22:19:05.129Z,7.50
2023-03-10T22:21:31.998Z,7.50
2023-03-10T22:23:59.940Z,7.50
2023-03-10T22:26:26.922Z,7.50
2023-03-10T22:28:54.368Z,7.50
2023-03-10T22:31:22.221Z,7.50
2023-03-10T22:33:49.310Z,7.50
2023-03-10T22:36:16.264Z,7.40
2023-03-10T22:38:43.270Z,7.40
2023-03-10T22:41:12.298Z,7.40
2023-03-10T22:43:39.479Z,7.40
2023-03-10T22:46:17.127Z,7.30
2023-03-10T22:48:44.570Z,7.30
2023-03-10T22:51:17.045Z,7.30
2023-03-10T22:53:46.768Z,7.30
2023-03-10T22:56:13.932Z,7.30
2023-03-10T22:58:41.052Z,7.20
2023-03-10T23:01:08.244Z,7.30
2023-03-10T23:03:36.300Z,7.20
2023-03-10T23:06:05.902Z,7.20
2023-03-10T23:08:33.588Z,7.20
2023-03-10T23:11:00.546Z,7.20
2023-03-10T23:13:27.509Z,7.20
2023-03-10T23:15:54.613Z,7.20
2023-03-10T23:18:21.757Z,7.20
2023-03-10T23:20:49.181Z,7.20
2023-03-10T23:23:18.346Z,7.20
2023-03-10T23:25:48.746Z,7.10
2023-03-10T23:28:16.274Z,7.10
2023-03-10T23:30:45.746Z,7.10
2023-03-10T23:33:18.455Z,7.10
2023-03-10T23:35:54.922Z,7.10
2023-03-10T23:38:24.969Z,7.10
2023-03-10T23:40:53.956Z,7.10
2023-03-10T23:43:21.578Z,7.10
2023-03-10T23:45:49.278Z,7.10
2023-03-10T23:48:17.926Z,7.10
2023-03-10T23:50:47.646Z,7.10
2023-03-10T23:53:17.279Z,7.10
2023-03-10T23:55:47.111Z,7.00
2023-03-10T23:58:16.706Z,7.00
